Time;durP1;ratioP1;P1;durP2;ratioP2;P2;SDS_P1;SDS_P2;PMS_P1;PMS_P2;Temp;Humidity;BMP_temperature;BMP_pressure;BME280_temperature;BME280_humidity;BME280_pressure;Samples;Min_cycle;Max_cycle;Signal;HPM_P1;HPM_P2
2023/04/14 00:02:24;;;;;;;68.30;10.17;;;7.10;99.90;;;;;;5023373;28;20181;-87
2023/04/14 00:04:53;;;;;;;67.37;7.67;;;7.00;99.90;;;;;;5038003;28;20235;-87
2023/04/14 00:07:19;;;;;;;67.63;7.28;;;7.10;99.90;;;;;;5040110;28;20169;-87
2023/04/14 00:09:45;;;;;;;69.00;7.82;;;7.00;99.90;;;;;;5041334;28;20169;-87
2023/04/14 00:12:11;;;;;;;69.43;12.90;;;6.90;99.90;;;;;;5041937;28;20161;-86
2023/04/14 00:14:37;;;;;;;65.57;7.83;;;6.80;99.90;;;;;;5040972;28;20189;-87
2023/04/14 00:17:03;;;;;;;69.05;9.20;;;6.70;99.90;;;;;;5041380;28;20154;-87
2023/04/14 00:19:28;;;;;;;69.10;12.30;;;6.60;99.90;;;;;;5040973;28;20171;-87
2023/04/14 00:21:54;;;;;;;70.10;17.43;;;6.50;99.90;;;;;;5041263;28;20173;-87
2023/04/14 00:24:20;;;;;;;71.73;16.27;;;6.50;99.90;;;;;;5034375;28;20189;-86
2023/04/14 00:26:45;;;;;;;71.80;19.27;;;6.40;99.90;;;;;;5033191;28;20204;-86
2023/04/14 00:29:11;;;;;;;68.97;18.03;;;6.30;99.90;;;;;;5034419;28;20648;-86
2023/04/14 00:31:37;;;;;;;69.10;12.47;;;6.30;99.90;;;;;;5033338;28;20169;-87
2023/04/14 00:34:03;;;;;;;68.57;15.50;;;6.20;99.90;;;;;;5033423;28;20240;-86
2023/04/14 00:36:28;;;;;;;75.95;20.92;;;6.20;99.90;;;;;;5034773;28;20189;-87
2023/04/14 00:38:54;;;;;;;72.23;22.70;;;6.10;99.90;;;;;;5035200;28;20259;-87
2023/04/14 00:41:20;;;;;;;71.27;20.60;;;6.10;99.90;;;;;;5033920;28;20173;-87
2023/04/14 00:43:46;;;;;;;70.15;17.52;;;6.00;99.90;;;;;;5035302;28;20177;-86
2023/04/14 00:46:15;;;;;;;72.53;18.37;;;6.00;99.90;;;;;;5035650;28;20580;-86
2023/04/14 00:48:41;;;;;;;70.78;21.15;;;6.10;99.90;;;;;;5033934;28;20648;-87
2023/04/14 00:51:10;;;;;;;72.77;21.53;;;6.00;99.90;;;;;;5034136;28;20177;-87
2023/04/14 00:53:37;;;;;;;73.88;19.58;;;6.00;99.90;;;;;;5034764;28;20631;-86
2023/04/14 00:56:03;;;;;;;69.43;20.55;;;6.00;99.90;;;;;;5034145;28;20216;-87
2023/04/14 00:58:30;;;;;;;72.18;21.52;;;6.00;99.90;;;;;;5034510;28;20166;-87
2023/04/14 01:00:57;;;;;;;71.63;19.20;;;6.00;99.90;;;;;;5034598;28;20161;-87
2023/04/14 01:03:26;;;;;;;72.50;21.13;;;6.00;99.90;;;;;;5034737;28;20196;-87
2023/04/14 01:05:51;;;;;;;68.85;14.45;;;6.10;99.90;;;;;;5035033;28;20149;-87
2023/04/14 01:08:18;;;;;;;74.40;14.20;;;6.10;99.90;;;;;;5035290;28;20172;-87
2023/04/14 01:10:54;;;;;;;89.60;13.90;;;6.10;99.90;;;;;;5034201;28;20180;-87
2023/04/14 01:13:34;;;;;;;69.32;12.07;;;6.30;99.90;;;;;;5034997;28;20189;-87
2023/04/14 01:16:09;;;;;;;67.63;10.50;;;6.40;99.90;;;;;;5034258;28;20236;-87
2023/04/14 01:18:52;;;;;;;69.88;12.38;;;6.30;99.90;;;;;;5033757;28;20187;-87
2023/04/14 01:21:27;;;;;;;68.70;13.82;;;6.20;99.90;;;;;;5035503;28;20678;-87
2023/04/14 01:24:14;;;;;;;69.45;14.75;;;6.10;99.90;;;;;;5033614;28;20664;-87
2023/04/14 01:26:41;;;;;;;72.80;16.25;;;6.00;99.90;;;;;;5035100;28;20153;-87
2023/04/14 01:29:40;;;;;;;72.65;16.75;;;5.90;99.90;;;;;;5034853;28;20165;-87
2023/04/14 01:32:10;;;;;;;71.40;17.05;;;5.90;99.90;;;;;;5033848;28;20648;-87
2023/04/14 01:34:43;;;;;;;69.65;15.50;;;5.90;99.90;;;;;;5033896;28;20286;-87
2023/04/14 01:37:30;;;;;;;68.95;14.27;;;5.80;99.90;;;;;;5034617;28;20149;-87
2023/04/14 01:40:01;;;;;;;72.80;14.85;;;5.90;99.90;;;;;;5033713;28;20182;-87
2023/04/14 01:42:31;;;;;;;72.28;13.52;;;5.80;99.90;;;;;;5036057;28;20248;-87
2023/04/14 01:45:04;;;;;;;73.80;16.05;;;5.90;99.90;;;;;;5039719;28;20203;-87
2023/04/14 01:47:30;;;;;;;73.55;14.50;;;6.00;99.90;;;;;;5038606;28;20159;-87
2023/04/14 01:49:58;;;;;;;70.05;13.27;;;5.90;99.90;;;;;;5038527;28;20175;-87
2023/04/14 01:52:25;;;;;;;70.10;14.93;;;5.80;99.90;;;;;;5038872;28;20252;-88
2023/04/14 01:54:53;;;;;;;68.80;11.50;;;5.90;99.90;;;;;;5038523;28;20563;-87
2023/04/14 01:57:21;;;;;;;70.65;14.82;;;5.80;99.90;;;;;;5039157;28;20253;-87
2023/04/14 01:59:50;;;;;;;69.63;13.35;;;5.80;99.90;;;;;;5106552;23;20228;-79
2023/04/14 02:02:21;;;;;;;71.70;13.60;;;5.70;99.90;;;;;;5039189;28;20648;-79
2023/04/14 02:04:48;;;;;;;71.10;15.43;;;5.60;99.90;;;;;;5038275;28;20189;-79
2023/04/14 02:07:15;;;;;;;68.22;13.95;;;5.70;99.90;;;;;;5039278;28;20599;-79
2023/04/14 02:09:42;;;;;;;71.10;16.38;;;5.70;99.90;;;;;;5038906;28;20215;-79
2023/04/14 02:12:10;;;;;;;69.97;13.00;;;5.80;99.90;;;;;;5038087;28;20180;-79
2023/04/14 02:14:39;;;;;;;71.93;12.18;;;5.70;99.90;;;;;;5038547;28;20204;-79
2023/04/14 02:17:06;;;;;;;72.03;14.13;;;5.60;99.90;;;;;;5038988;28;20230;-79
2023/04/14 02:19:34;;;;;;;69.45;13.68;;;5.70;99.90;;;;;;5039284;28;20184;-79
2023/04/14 02:22:01;;;;;;;69.45;14.02;;;5.60;99.90;;;;;;5038956;28;20180;-79
2023/04/14 02:24:27;;;;;;;72.47;14.85;;;5.50;99.90;;;;;;5038533;28;20181;-79
2023/04/14 02:27:02;;;;;;;71.57;14.47;;;5.50;99.90;;;;;;5039079;28;20509;-79
2023/04/14 02:29:30;;;;;;;70.97;13.48;;;5.40;99.90;;;;;;5037547;28;20403;-79
2023/04/14 02:32:13;;;;;;;71.05;13.90;;;5.40;99.90;;;;;;5038654;28;20244;-79
2023/04/14 02:35:16;;;;;;;72.10;14.90;;;5.40;99.90;;;;;;5037764;28;20196;-79
2023/04/14 02:37:47;;;;;;;69.40;14.35;;;5.50;99.90;;;;;;5033909;28;20529;-79
2023/04/14 02:40:28;;;;;;;68.72;12.95;;;5.50;99.90;;;;;;5038981;28;20184;-79
2023/04/14 02:43:03;;;;;;;69.75;15.40;;;5.40;99.90;;;;;;5038016;28;20548;-79
2023/04/14 02:45:31;;;;;;;68.85;12.27;;;5.40;99.90;;;;;;5038826;28;20184;-79
2023/04/14 02:48:10;;;;;;;69.35;13.32;;;5.30;99.90;;;;;;5037235;28;20215;-79
2023/04/14 02:50:38;;;;;;;70.95;13.45;;;5.30;99.90;;;;;;5038683;28;20200;-79
2023/04/14 02:53:04;;;;;;;70.13;12.38;;;5.20;99.90;;;;;;5038579;28;20185;-79
2023/04/14 02:55:31;;;;;;;71.72;12.40;;;5.10;99.90;;;;;;5038404;28;20642;-79
2023/04/14 02:57:58;;;;;;;71.72;13.98;;;5.00;99.90;;;;;;5038476;28;20175;-79
2023/04/14 03:00:26;;;;;;;68.55;12.75;;;5.10;99.90;;;;;;5038200;28;20232;-79
2023/04/14 03:02:53;;;;;;;68.60;12.93;;;5.00;99.90;;;;;;5038094;28;20165;-79
2023/04/14 03:05:20;;;;;;;69.47;13.27;;;5.00;99.90;;;;;;5036863;28;20248;-79
2023/04/14 03:07:46;;;;;;;69.32;14.10;;;5.10;99.90;;;;;;5037175;28;20162;-79
2023/04/14 03:10:13;;;;;;;70.50;14.85;;;5.10;99.90;;;;;;5036488;28;20176;-79
2023/04/14 03:12:40;;;;;;;69.30;13.82;;;5.00;99.90;;;;;;5038237;28;20183;-79
2023/04/14 03:15:08;;;;;;;69.53;14.35;;;4.90;99.90;;;;;;5037791;28;20579;-79
2023/04/14 03:17:36;;;;;;;69.65;12.82;;;4.90;99.90;;;;;;5038079;28;20648;-79
2023/04/14 03:20:04;;;;;;;68.80;13.18;;;4.90;99.90;;;;;;5037807;28;20227;-79
2023/04/14 03:22:33;;;;;;;70.10;13.55;;;5.00;99.90;;;;;;5038331;28;20168;-79
2023/04/14 03:24:59;;;;;;;68.90;10.48;;;5.20;99.90;;;;;;5036822;28;20193;-79
2023/04/14 03:27:29;;;;;;;69.93;10.38;;;5.20;99.90;;;;;;5037819;28;20173;-79
2023/04/14 03:30:02;;;;;;;68.13;10.60;;;5.40;99.90;;;;;;5037965;28;20156;-79
2023/04/14 03:32:34;;;;;;;68.65;13.80;;;5.20;99.90;;;;;;5037889;28;20548;-79
2023/04/14 03:35:01;;;;;;;71.00;15.00;;;5.10;99.90;;;;;;5036061;28;20204;-79
2023/04/14 03:37:28;;;;;;;68.68;15.02;;;4.90;99.90;;;;;;5036297;28;20165;-79
2023/04/14 03:39:59;;;;;;;72.53;16.67;;;4.70;99.90;;;;;;5036207;28;20175;-79
2023/04/14 03:42:28;;;;;;;71.57;12.57;;;4.60;99.90;;;;;;5037708;28;20223;-79
2023/04/14 03:44:55;;;;;;;69.65;11.63;;;4.60;99.90;;;;;;5037363;28;20220;-79
2023/04/14 03:47:23;;;;;;;68.63;11.45;;;4.60;99.90;;;;;;5036213;28;20173;-79
2023/04/14 03:49:51;;;;;;;69.03;10.88;;;4.60;99.90;;;;;;5037239;28;20247;-79
2023/04/14 03:52:19;;;;;;;78.68;11.55;;;4.50;99.90;;;;;;5037563;28;20223;-79
2023/04/14 03:54:48;;;;;;;69.78;10.85;;;4.50;99.90;;;;;;5036947;28;20695;-79
2023/04/14 03:57:16;;;;;;;70.75;11.73;;;4.60;99.90;;;;;;5037285;28;20162;-79
2023/04/14 03:59:43;;;;;;;69.15;11.93;;;4.60;99.90;;;;;;5037338;28;20177;-79
2023/04/14 04:02:10;;;;;;;70.03;12.48;;;4.50;99.90;;;;;;5037757;28;20252;-79
2023/04/14 04:04:36;;;;;;;72.10;10.60;;;4.40;99.90;;;;;;5036885;28;20185;-79
2023/04/14 04:07:03;;;;;;;70.83;11.27;;;4.40;99.90;;;;;;5037497;28;20168;-79
2023/04/14 04:09:29;;;;;;;70.57;10.02;;;4.30;99.90;;;;;;5036882;28;20479;-79
2023/04/14 04:11:57;;;;;;;72.57;11.63;;;4.30;99.90;;;;;;5037176;28;20655;-79
2023/04/14 04:14:25;;;;;;;72.65;10.10;;;4.30;99.90;;;;;;5036392;28;20599;-79
2023/04/14 04:16:53;;;;;;;70.82;10.07;;;4.40;99.90;;;;;;5035653;28;20556;-79
2023/04/14 04:19:21;;;;;;;73.57;9.70;;;4.40;99.90;;;;;;5035543;28;20219;-79
2023/04/14 04:21:50;;;;;;;69.28;8.75;;;4.40;99.90;;;;;;5038149;28;20162;-79
2023/04/14 04:24:18;;;;;;;70.78;9.35;;;4.40;99.90;;;;;;5036666;28;20188;-79
2023/04/14 04:26:47;;;;;;;71.43;8.43;;;4.40;99.90;;;;;;5036772;28;20176;-79
2023/04/14 04:29:14;;;;;;;73.75;9.63;;;4.50;99.90;;;;;;5036363;28;20215;-79
2023/04/14 04:31:40;;;;;;;72.70;10.35;;;4.50;99.90;;;;;;5035169;28;20629;-79
2023/04/14 04:34:07;;;;;;;70.87;10.57;;;4.50;99.90;;;;;;5035157;28;20280;-79
2023/04/14 04:36:33;;;;;;;69.22;10.68;;;4.40;99.90;;;;;;5036141;28;20497;-79
2023/04/14 04:38:59;;;;;;;68.18;10.75;;;4.40;99.90;;;;;;5036116;28;20166;-79
2023/04/14 04:41:26;;;;;;;70.17;9.80;;;4.50;99.90;;;;;;5036865;28;20561;-79
2023/04/14 04:43:52;;;;;;;68.88;10.65;;;4.50;99.90;;;;;;5034722;28;20196;-79
2023/04/14 04:46:42;;;;;;;72.18;11.20;;;4.60;99.90;;;;;;5036378;28;20577;-79
2023/04/14 04:49:08;;;;;;;67.68;9.70;;;4.50;99.90;;;;;;5036158;28;20158;-79
2023/04/14 04:51:34;;;;;;;67.77;9.17;;;4.50;99.90;;;;;;5036148;28;20177;-79
2023/04/14 04:53:59;;;;;;;68.17;9.40;;;4.40;99.90;;;;;;5035948;28;20181;-79
2023/04/14 04:56:26;;;;;;;71.50;10.20;;;4.30;99.90;;;;;;5034856;28;20196;-79
2023/04/14 04:58:51;;;;;;;69.00;9.85;;;4.30;99.90;;;;;;5036462;28;20184;-79
2023/04/14 05:01:20;;;;;;;71.17;10.13;;;4.30;99.90;;;;;;5034805;28;20162;-79
2023/04/14 05:03:46;;;;;;;71.35;9.77;;;4.40;99.90;;;;;;5035662;28;20939;-79
2023/04/14 05:06:12;;;;;;;67.97;9.50;;;4.40;99.90;;;;;;5035908;28;20166;-79
2023/04/14 05:08:38;;;;;;;69.35;9.20;;;4.40;99.90;;;;;;5036226;28;20640;-79
2023/04/14 05:11:09;;;;;;;74.47;10.37;;;4.40;99.90;;;;;;5035705;28;20173;-79
2023/04/14 05:13:35;;;;;;;70.38;7.78;;;4.40;99.90;;;;;;5034135;28;20507;-78
2023/04/14 05:16:05;;;;;;;67.50;8.67;;;4.40;99.90;;;;;;5034968;28;20232;-79
2023/04/14 05:18:32;;;;;;;73.35;9.27;;;4.40;99.90;;;;;;5035948;28;20161;-79
2023/04/14 05:21:16;;;;;;;70.60;9.48;;;4.40;99.90;;;;;;5035892;28;20189;-79
2023/04/14 05:23:43;;;;;;;71.88;8.63;;;4.40;99.90;;;;;;5034274;28;20199;-79
2023/04/14 05:26:13;;;;;;;69.32;8.80;;;4.50;99.90;;;;;;5035789;28;20173;-79
2023/04/14 05:28:40;;;;;;;67.32;9.25;;;4.50;99.90;;;;;;5033810;28;20169;-79
2023/04/14 05:31:06;;;;;;;71.28;10.75;;;4.50;99.90;;;;;;5035074;28;20648;-79
2023/04/14 05:33:32;;;;;;;69.50;8.73;;;4.60;99.90;;;;;;5035187;28;20197;-79
2023/04/14 05:35:58;;;;;;;71.88;9.80;;;4.70;99.90;;;;;;5034277;28;20189;-79
2023/04/14 05:38:24;;;;;;;68.20;9.70;;;4.80;99.90;;;;;;5034172;28;20165;-79
2023/04/14 05:40:50;;;;;;;71.15;9.98;;;4.90;99.90;;;;;;5033240;28;20169;-79
2023/04/14 05:43:18;;;;;;;67.53;8.80;;;5.00;99.90;;;;;;5036097;28;20192;-79
2023/04/14 05:45:47;;;;;;;71.30;9.43;;;5.10;99.90;;;;;;5034839;28;20184;-79
2023/04/14 05:48:16;;;;;;;73.95;10.73;;;5.10;99.90;;;;;;5034434;28;20173;-79
2023/04/14 05:50:45;;;;;;;77.93;11.43;;;5.20;99.90;;;;;;5036036;28;20173;-79
2023/04/14 05:53:10;;;;;;;71.75;11.07;;;5.30;99.90;;;;;;5035833;28;20239;-79
2023/04/14 05:55:38;;;;;;;67.53;8.07;;;5.30;99.90;;;;;;5035952;28;20189;-79
2023/04/14 05:58:04;;;;;;;70.15;10.07;;;5.40;99.90;;;;;;5036251;28;20404;-79
2023/04/14 06:00:30;;;;;;;70.60;9.83;;;5.40;99.90;;;;;;5035305;28;20153;-79
2023/04/14 06:02:55;;;;;;;71.63;10.50;;;5.50;99.90;;;;;;5036338;28;20663;-79
2023/04/14 06:05:23;;;;;;;77.10;11.57;;;5.50;99.90;;;;;;5034346;28;20259;-80
2023/04/14 06:07:48;;;;;;;73.28;11.65;;;5.50;99.90;;;;;;5035907;28;20168;-80
2023/04/14 06:10:14;;;;;;;71.70;9.60;;;5.60;99.90;;;;;;5036336;28;20169;-79
2023/04/14 06:12:40;;;;;;;77.63;9.45;;;5.80;99.90;;;;;;5035790;28;20165;-79
2023/04/14 06:15:06;;;;;;;69.60;8.50;;;5.80;99.90;;;;;;5035668;28;20695;-79
2023/04/14 06:17:32;;;;;;;67.15;7.50;;;5.90;99.90;;;;;;5033958;28;20166;-79
2023/04/14 06:19:58;;;;;;;72.72;8.18;;;6.00;99.90;;;;;;5035810;28;20236;-79
2023/04/14 06:22:28;;;;;;;69.47;8.20;;;6.10;99.90;;;;;;5035434;28;20687;-79
2023/04/14 06:24:57;;;;;;;70.22;7.40;;;6.10;99.90;;;;;;5035642;28;20458;-79
2023/04/14 06:27:24;;;;;;;71.50;8.07;;;6.20;99.90;;;;;;5034998;28;20172;-79
2023/04/14 06:29:50;;;;;;;71.15;9.43;;;6.20;99.90;;;;;;5036489;28;20676;-79
2023/04/14 06:32:17;;;;;;;75.25;7.60;;;6.20;99.90;;;;;;5038126;28;20629;-79
2023/04/14 06:34:43;;;;;;;69.88;7.40;;;6.30;99.90;;;;;;5036337;28;20676;-79
2023/04/14 06:37:08;;;;;;;68.33;8.00;;;6.30;99.90;;;;;;5037443;28;20161;-79
2023/04/14 06:39:34;;;;;;;67.73;8.67;;;6.40;99.90;;;;;;5038221;28;20224;-79
2023/04/14 06:41:59;;;;;;;71.87;7.63;;;6.50;99.90;;;;;;5037601;28;20208;-79
2023/04/14 06:44:25;;;;;;;71.63;8.20;;;6.50;99.90;;;;;;5037329;28;20228;-79
2023/04/14 06:46:51;;;;;;;69.50;9.40;;;6.60;99.90;;;;;;5036194;28;20169;-79
2023/04/14 06:49:18;;;;;;;71.13;10.30;;;6.60;99.90;;;;;;5037405;28;20660;-79
2023/04/14 06:51:44;;;;;;;71.47;9.10;;;6.70;99.90;;;;;;5036127;28;20541;-79
2023/04/14 06:54:10;;;;;;;71.57;11.07;;;6.80;99.90;;;;;;5037823;28;20185;-79
2023/04/14 06:56:35;;;;;;;73.30;9.63;;;6.80;99.90;;;;;;5037006;28;20484;-79
2023/04/14 06:59:01;;;;;;;69.70;9.30;;;6.80;99.90;;;;;;5036162;28;20185;-78
2023/04/14 07:01:27;;;;;;;71.20;10.60;;;6.90;99.90;;;;;;5037319;28;20194;-79
2023/04/14 07:03:52;;;;;;;74.80;11.00;;;7.00;99.90;;;;;;5037189;28;20185;-79
2023/04/14 07:06:18;;;;;;;72.53;10.30;;;7.00;99.90;;;;;;5122040;23;20225;-79
2023/04/14 07:08:45;;;;;;;75.43;12.77;;;7.10;99.90;;;;;;5023361;28;20169;-79
2023/04/14 07:11:11;;;;;;;73.07;12.20;;;7.20;99.90;;;;;;5021301;28;20166;-79
2023/04/14 07:13:38;;;;;;;73.55;12.63;;;7.30;99.90;;;;;;5022379;28;20186;-78
2023/04/14 07:16:07;;;;;;;74.82;11.38;;;7.30;99.90;;;;;;5022764;28;20205;-79
2023/04/14 07:18:33;;;;;;;77.72;10.25;;;7.40;99.90;;;;;;5024173;28;20193;-78
2023/04/14 07:21:00;;;;;;;71.53;10.88;;;7.40;99.90;;;;;;5022405;28;20265;-78
2023/04/14 07:23:26;;;;;;;78.03;11.02;;;7.40;99.90;;;;;;5022642;28;20665;-79
2023/04/14 07:25:55;;;;;;;72.68;11.23;;;7.50;99.90;;;;;;5023620;28;20196;-78
2023/04/14 07:28:22;;;;;;;70.57;9.25;;;7.50;99.90;;;;;;5023532;28;20665;-78
2023/04/14 07:30:49;;;;;;;74.18;9.60;;;7.60;99.90;;;;;;5023522;28;20229;-79
2023/04/14 07:33:19;;;;;;;72.68;10.80;;;7.80;99.90;;;;;;5021865;28;20201;-79
2023/04/14 07:35:51;;;;;;;70.10;9.85;;;7.80;99.90;;;;;;5020582;28;20189;-79
2023/04/14 07:38:16;;;;;;;70.70;10.43;;;8.00;99.90;;;;;;5023110;28;20229;-79
2023/04/14 07:40:42;;;;;;;70.53;11.00;;;8.10;99.90;;;;;;5023443;28;20166;-79
2023/04/14 07:43:08;;;;;;;72.30;10.50;;;8.20;99.90;;;;;;5023391;28;20433;-79
2023/04/14 07:45:33;;;;;;;77.03;9.23;;;8.30;99.90;;;;;;5022484;28;20174;-78
2023/04/14 07:47:59;;;;;;;72.40;9.47;;;8.30;99.90;;;;;;5023724;28;20177;-79
2023/04/14 07:50:25;;;;;;;70.27;8.80;;;8.40;99.90;;;;;;5024483;28;20177;-79
2023/04/14 07:52:51;;;;;;;76.30;11.33;;;8.40;99.90;;;;;;5023253;28;20604;-79
2023/04/14 07:55:17;;;;;;;74.90;8.10;;;8.50;98.10;;;;;;5023122;28;20444;-79
2023/04/14 08:00:15;;;;;;;72.38;7.97;;;8.60;97.40;;;;;;4997330;28;20469;-87
2023/04/14 08:02:41;;;;;;;75.97;18.20;;;8.60;95.70;;;;;;4997289;28;20170;-86
2023/04/14 08:05:07;;;;;;;69.97;7.63;;;8.60;87.90;;;;;;4998048;28;20401;-86
2023/04/14 08:07:33;;;;;;;66.30;6.23;;;8.80;90.70;;;;;;4997065;28;20547;-87
2023/04/14 08:09:58;;;;;;;69.80;6.97;;;8.90;83.60;;;;;;4998598;28;20170;-86
2023/04/14 08:12:24;;;;;;;69.23;5.90;;;8.90;86.30;;;;;;4999000;28;20173;-87
2023/04/14 08:14:55;;;;;;;70.60;5.82;;;8.90;88.60;;;;;;4997956;28;20198;-86
2023/04/14 08:17:22;;;;;;;70.95;6.13;;;8.90;88.50;;;;;;4997046;28;20221;-86
2023/04/14 08:19:47;;;;;;;76.82;6.50;;;8.90;87.00;;;;;;4997383;28;20646;-87
2023/04/14 08:22:13;;;;;;;66.07;5.97;;;9.00;88.70;;;;;;4996846;28;20173;-86
2023/04/14 08:24:39;;;;;;;66.43;5.53;;;9.10;90.00;;;;;;4997653;28;20190;-86
2023/04/14 08:27:05;;;;;;;67.30;5.00;;;9.10;86.00;;;;;;4998323;28;20163;-86
2023/04/14 08:29:30;;;;;;;73.27;5.50;;;9.30;79.40;;;;;;4997386;28;20422;-86
2023/04/14 08:31:56;;;;;;;72.90;6.57;;;9.30;83.40;;;;;;4998187;28;20233;-87
2023/04/14 08:34:22;;;;;;;69.47;5.80;;;9.50;82.50;;;;;;4997742;28;20277;-87
2023/04/14 08:36:48;;;;;;;73.53;6.50;;;9.60;76.50;;;;;;4998484;28;20186;-87
2023/04/14 08:39:14;;;;;;;70.03;5.60;;;9.60;77.50;;;;;;4998628;28;20549;-87
2023/04/14 08:41:41;;;;;;;72.60;5.78;;;9.60;81.10;;;;;;4997978;28;20182;-86
2023/04/14 08:44:14;;;;;;;74.70;5.38;;;9.80;81.60;;;;;;4997297;28;20274;-87
2023/04/14 08:46:41;;;;;;;73.80;5.75;;;9.80;75.10;;;;;;4997022;28;20186;-86
2023/04/14 08:49:16;;;;;;;70.50;5.57;;;9.80;70.60;;;;;;4996916;28;20666;-87
2023/04/14 08:51:46;;;;;;;73.88;7.40;;;10.00;82.70;;;;;;4997316;28;20150;-87
2023/04/14 08:54:14;;;;;;;74.53;6.18;;;10.00;87.20;;;;;;4996280;28;20190;-85
2023/04/14 08:56:41;;;;;;;68.68;5.45;;;10.00;74.60;;;;;;4994459;28;20190;-86
2023/04/14 08:59:30;;;;;;;70.35;5.78;;;10.20;68.90;;;;;;4996309;28;20265;-86
2023/04/14 09:01:58;;;;;;;67.30;5.22;;;10.30;74.60;;;;;;4997272;28;20171;-86
2023/04/14 09:04:26;;;;;;;76.88;5.85;;;10.30;56.60;;;;;;4997018;28;20190;-86
2023/04/14 09:10:34;;;;;;;72.10;5.10;;;10.40;44.70;;;;;;4997191;28;20174;-86
2023/04/14 09:13:02;;;;;;;68.65;6.03;;;10.50;43.80;;;;;;4996175;28;20271;-86
2023/04/14 09:15:29;;;;;;;70.50;5.93;;;10.60;27.10;;;;;;4979780;28;20202;-86
2023/04/14 09:17:56;;;;;;;69.63;6.20;;;10.60;39.20;;;;;;4996000;28;20225;-87
2023/04/14 09:20:21;;;;;;;72.22;6.28;;;10.50;23.30;;;;;;4997131;28;20166;-87
2023/04/14 09:22:47;;;;;;;74.47;5.53;;;10.70;34.60;;;;;;4996912;28;20167;-87
2023/04/14 09:25:16;;;;;;;68.07;5.00;;;10.80;37.50;;;;;;4995442;28;20445;-86
2023/04/14 09:27:42;;;;;;;66.65;5.15;;;10.90;27.90;;;;;;4996250;28;20402;-86
2023/04/14 09:30:09;;;;;;;69.43;7.03;;;10.90;26.80;;;;;;4995910;28;20704;-86
2023/04/14 09:32:37;;;;;;;69.32;9.38;;;11.10;25.70;;;;;;4997125;28;20436;-86
2023/04/14 09:35:03;;;;;;;70.20;5.55;;;11.20;18.00;;;;;;4995585;28;20198;-87
2023/04/14 09:37:45;;;;;;;69.25;4.18;;;11.30;12.70;;;;;;4995900;28;20228;-87
2023/04/14 09:40:26;;;;;;;69.40;5.43;;;11.40;1.00;;;;;;4997378;28;20313;-85
2023/04/14 09:42:53;;;;;;;66.90;4.03;;;11.50;1.00;;;;;;4996332;28;20306;-86
2023/04/14 09:45:18;;;;;;;68.57;3.90;;;11.60;1.00;;;;;;4995918;28;20605;-86
2023/04/14 09:47:44;;;;;;;71.07;4.07;;;11.80;1.00;;;;;;4998631;28;20162;-86
2023/04/14 09:50:10;;;;;;;65.83;4.20;;;11.90;1.00;;;;;;4998148;28;20839;-86
2023/04/14 09:52:37;;;;;;;71.10;5.17;;;11.90;1.00;;;;;;4997081;28;20206;-86
2023/04/14 09:55:06;;;;;;;66.70;5.03;;;12.00;1.00;;;;;;4998131;28;20453;-87
2023/04/14 09:57:33;;;;;;;68.72;4.82;;;12.20;1.00;;;;;;4996332;28;20170;-86
2023/04/14 10:00:04;;;;;;;69.80;3.65;;;12.40;1.00;;;;;;4996107;28;20186;-86
2023/04/14 10:02:46;;;;;;;68.93;5.28;;;12.50;1.00;;;;;;4997211;28;20220;-88
2023/04/14 10:05:11;;;;;;;74.32;4.93;;;12.50;1.00;;;;;;5002394;28;20150;-87
2023/04/14 10:07:40;;;;;;;66.73;3.97;;;12.70;1.00;;;;;;5000912;28;20673;-87
2023/04/14 10:10:09;;;;;;;70.43;5.10;;;12.80;1.00;;;;;;5002129;28;20601;-87
2023/04/14 10:12:35;;;;;;;67.05;4.13;;;13.00;1.00;;;;;;5001471;28;20170;-88
2023/04/14 10:15:00;;;;;;;66.87;4.93;;;13.20;1.00;;;;;;5001259;28;20209;-87
2023/04/14 10:17:26;;;;;;;67.77;4.90;;;13.40;1.00;;;;;;5001342;28;20249;-88
2023/04/14 10:19:55;;;;;;;72.17;5.20;;;13.60;1.00;;;;;;5001627;28;20163;-87
2023/04/14 10:22:22;;;;;;;66.90;5.10;;;13.90;1.00;;;;;;5004155;28;20510;-87
2023/04/14 10:24:50;;;;;;;67.22;4.63;;;14.00;1.00;;;;;;5002162;28;20421;-87
2023/04/14 10:27:19;;;;;;;67.55;4.70;;;14.20;1.00;;;;;;5001950;28;20193;-88
2023/04/14 10:29:46;;;;;;;66.43;4.53;;;14.10;1.00;;;;;;5002737;28;20159;-88
2023/04/14 10:32:15;;;;;;;67.40;3.90;;;13.80;1.00;;;;;;5003106;28;20890;-87
2023/04/14 10:34:58;;;;;;;65.77;4.20;;;14.00;1.00;;;;;;5003255;28;20421;-87
2023/04/14 10:37:24;;;;;;;65.70;4.53;;;14.30;1.00;;;;;;5001531;28;20801;-88
2023/04/14 10:39:55;;;;;;;69.57;5.30;;;14.40;1.00;;;;;;4999432;28;20424;-86
2023/04/14 10:42:21;;;;;;;67.93;4.50;;;14.40;1.00;;;;;;4997866;28;20484;-87
2023/04/14 10:45:07;;;;;;;66.77;3.63;;;14.50;1.00;;;;;;4997758;28;20817;-87
2023/04/14 10:47:34;;;;;;;72.37;3.70;;;14.60;1.00;;;;;;4997808;28;20436;-86
2023/04/14 10:50:17;;;;;;;68.20;3.80;;;14.60;1.00;;;;;;4999044;28;20420;-87
2023/04/14 10:52:53;;;;;;;70.03;3.97;;;14.60;1.00;;;;;;5000109;28;20405;-86
2023/04/14 10:55:24;;;;;;;66.43;3.77;;;14.90;1.00;;;;;;4999302;28;20464;-86
2023/04/14 10:57:53;;;;;;;66.70;3.23;;;14.90;1.00;;;;;;5000199;28;20471;-86
2023/04/14 11:00:30;;;;;;;68.40;3.53;;;15.00;1.00;;;;;;5000635;28;20438;-86
2023/04/14 11:03:06;;;;;;;68.57;3.70;;;15.40;1.00;;;;;;5000133;28;20374;-87
2023/04/14 11:05:33;;;;;;;67.27;3.77;;;15.90;1.00;;;;;;4999967;28;20433;-87
2023/04/14 11:08:00;;;;;;;68.20;5.60;;;16.50;1.00;;;;;;4998564;28;20444;-86
2023/04/14 11:10:29;;;;;;;68.60;4.50;;;16.50;1.00;;;;;;4999201;28;20415;-86
2023/04/14 11:12:59;;;;;;;65.97;3.47;;;16.40;1.00;;;;;;4999403;28;20413;-87
2023/04/14 11:16:00;;;;;;;67.73;4.20;;;16.30;1.00;;;;;;4997630;28;20541;-88
2023/04/14 11:18:30;;;;;;;69.00;5.10;;;16.10;1.00;;;;;;4998522;28;20406;-87
2023/04/14 11:21:07;;;;;;;66.33;3.80;;;16.50;1.00;;;;;;4999681;28;20414;-88
2023/04/14 11:23:34;;;;;;;68.63;3.70;;;16.50;1.00;;;;;;5000851;28;20427;-87
2023/04/14 11:26:10;;;;;;;68.10;4.00;;;16.40;1.00;;;;;;5000968;28;20399;-86
2023/04/14 11:28:45;;;;;;;67.97;3.47;;;16.40;1.00;;;;;;4999392;28;20451;-86
2023/04/14 11:31:13;;;;;;;67.17;3.17;;;16.50;1.00;;;;;;5000465;28;20396;-87
2023/04/14 11:33:40;;;;;;;67.97;3.00;;;16.70;1.00;;;;;;5000398;28;20439;-87
2023/04/14 11:36:08;;;;;;;68.33;2.93;;;17.20;1.00;;;;;;5000661;28;20895;-87
2023/04/14 11:38:38;;;;;;;67.47;3.30;;;17.00;1.00;;;;;;4998794;28;20443;-87
2023/04/14 11:41:04;;;;;;;67.83;3.33;;;17.00;1.00;;;;;;4999574;28;20409;-86
2023/04/14 11:43:30;;;;;;;68.47;2.90;;;17.20;1.00;;;;;;4999906;28;20451;-87
2023/04/14 11:45:57;;;;;;;66.87;3.23;;;17.50;1.00;;;;;;4999018;28;20419;-88
2023/04/14 11:48:23;;;;;;;67.87;3.27;;;17.70;1.00;;;;;;5000309;28;20408;-87
2023/04/14 11:50:49;;;;;;;66.20;2.80;;;17.60;1.00;;;;;;5000297;28;20957;-87
2023/04/14 11:53:17;;;;;;;66.83;3.17;;;17.00;1.00;;;;;;5001228;28;20429;-86
2023/04/14 11:55:45;;;;;;;68.87;3.00;;;16.70;1.00;;;;;;5000398;28;20449;-87
2023/04/14 11:58:18;;;;;;;65.37;2.87;;;16.20;1.00;;;;;;5000048;28;20424;-87
2023/04/14 12:00:48;;;;;;;72.20;4.07;;;16.70;1.00;;;;;;5000955;28;20425;-86
2023/04/14 12:03:14;;;;;;;68.70;4.27;;;17.10;1.00;;;;;;4999500;28;20432;-87
2023/04/14 12:05:40;;;;;;;66.30;4.03;;;17.30;1.00;;;;;;5000919;28;20406;-87
2023/04/14 12:08:08;;;;;;;68.30;4.03;;;17.40;1.00;;;;;;4999107;28;20412;-87
2023/04/14 12:10:39;;;;;;;66.93;3.43;;;17.20;1.00;;;;;;4999102;28;20810;-88
2023/04/14 12:13:10;;;;;;;66.67;3.63;;;16.70;1.00;;;;;;4999581;28;20458;-87
2023/04/14 12:15:38;;;;;;;68.17;3.03;;;16.70;1.00;;;;;;5000539;28;20521;-86
2023/04/14 12:18:13;;;;;;;68.20;3.20;;;16.70;1.00;;;;;;5000467;28;20410;-87
2023/04/14 12:21:00;;;;;;;67.73;2.70;;;16.70;1.00;;;;;;4998137;28;20404;-87
2023/04/14 12:23:25;;;;;;;70.53;4.03;;;16.60;1.00;;;;;;4999711;28;20791;-87
2023/04/14 12:25:52;;;;;;;73.50;4.30;;;16.70;1.00;;;;;;4998900;28;20417;-87
2023/04/14 12:28:37;;;;;;;70.60;3.93;;;17.00;1.00;;;;;;4996069;28;20534;-86
2023/04/14 12:31:07;;;;;;;65.97;3.17;;;17.10;1.00;;;;;;4994920;28;20414;-86
2023/04/14 12:33:34;;;;;;;69.57;4.23;;;17.40;1.00;;;;;;4996979;28;20465;-87
2023/04/14 12:36:05;;;;;;;67.90;4.30;;;17.50;1.00;;;;;;4997020;28;20458;-86
2023/04/14 12:38:35;;;;;;;69.30;4.33;;;17.60;1.00;;;;;;4997699;28;20906;-87
2023/04/14 12:41:01;;;;;;;67.80;4.33;;;18.00;1.00;;;;;;4997918;28;20415;-86
2023/04/14 12:43:34;;;;;;;67.33;4.30;;;18.20;1.00;;;;;;4998789;28;20759;-86
2023/04/14 12:46:02;;;;;;;67.47;4.93;;;18.30;1.00;;;;;;4996317;28;20481;-86
2023/04/14 12:48:49;;;;;;;69.10;4.30;;;18.40;1.00;;;;;;4998452;28;20402;-87
2023/04/14 12:51:17;;;;;;;67.73;4.50;;;18.00;1.00;;;;;;4997237;28;20409;-87
2023/04/14 12:53:57;;;;;;;;;;;;;;;;;;;;;
2023/04/14 12:56:23;;;;;;;68.57;4.80;;;17.20;1.00;;;;;;4998486;28;20522;-87
2023/04/14 12:58:50;;;;;;;67.80;4.60;;;17.50;1.00;;;;;;4997858;28;20946;-87